createdAt,value
2022-09-27T00:00:13.646Z,3.78
2022-09-27T00:02:40.678Z,2.72
2022-09-27T00:05:08.306Z,3.20
2022-09-27T00:07:35.386Z,2.40
2022-09-27T00:10:02.718Z,2.85
2022-09-27T00:12:29.797Z,2.40
2022-09-27T00:14:57.116Z,6.90
2022-09-27T00:17:24.056Z,4.32
2022-09-27T00:19:51.086Z,2.97
2022-09-27T00:22:18.118Z,2.78
2022-09-27T00:24:45.058Z,4.78
2022-09-27T00:27:12.018Z,3.45
2022-09-27T00:29:39.106Z,2.72
2022-09-27T00:32:06.134Z,2.90
2022-09-27T00:34:33.186Z,3.58
2022-09-27T00:37:00.206Z,4.03
2022-09-27T00:39:27.326Z,2.55
2022-09-27T00:41:54.737Z,2.95
2022-09-27T00:44:33.577Z,3.03
2022-09-27T00:47:23.136Z,5.30
2022-09-27T00:49:58.606Z,3.75
2022-09-27T00:52:42.578Z,3.53
2022-09-27T00:55:16.575Z,3.75
2022-09-27T00:57:46.189Z,4.13
2022-09-27T01:00:15.446Z,3.30
2022-09-27T01:02:49.519Z,6.85
2022-09-27T01:05:20.390Z,4.07
2022-09-27T01:07:47.658Z,5.05
2022-09-27T01:10:16.358Z,3.53
2022-09-27T01:13:00.621Z,2.80
2022-09-27T01:16:08.851Z,2.92
2022-09-27T01:18:54.780Z,4.03
2022-09-27T01:21:44.826Z,4.70
2022-09-27T01:24:31.315Z,4.80
2022-09-27T01:27:28.546Z,3.60
2022-09-27T01:30:14.206Z,3.65
2022-09-27T01:33:09.572Z,4.15
2022-09-27T01:36:06.137Z,5.32
2022-09-27T01:41:36.326Z,3.42
2022-09-27T01:44:08.731Z,3.33
2022-09-27T01:47:02.186Z,3.50
2022-09-27T01:49:40.838Z,4.63
2022-09-27T01:52:10.116Z,4.20
2022-09-27T01:54:46.296Z,3.88
2022-09-27T01:57:20.128Z,4.22
2022-09-27T01:59:54.576Z,3.30
2022-09-27T02:02:27.038Z,4.15
2022-09-27T02:04:58.333Z,4.32
2022-09-27T02:07:30.706Z,3.97
2022-09-27T02:10:04.266Z,3.70
2022-09-27T02:12:45.382Z,4.45
2022-09-27T02:15:15.468Z,4.95
2022-09-27T02:17:55.436Z,4.80
2022-09-27T02:20:46.309Z,4.35
2022-09-27T02:23:34.208Z,3.65
2022-09-27T02:26:19.726Z,3.28
2022-09-27T02:28:57.486Z,5.45
2022-09-27T02:31:24.497Z,4.22
2022-09-27T02:34:08.776Z,4.07
2022-09-27T02:36:37.346Z,3.53
2022-09-27T02:39:05.047Z,4.30
2022-09-27T02:41:32.081Z,3.50
2022-09-27T02:44:05.546Z,3.90
2022-09-27T02:46:53.819Z,3.70
2022-09-27T02:49:45.678Z,4.85
2022-09-27T02:52:33.946Z,4.85
2022-09-27T02:55:26.296Z,4.38
2022-09-27T02:58:01.840Z,4.53
2022-09-27T03:00:42.176Z,5.47
2022-09-27T03:03:17.191Z,3.72
2022-09-27T03:05:51.979Z,5.15
2022-09-27T03:08:19.185Z,4.20
2022-09-27T03:10:46.207Z,5.20
2022-09-27T03:13:13.805Z,4.25
2022-09-27T03:15:40.769Z,6.18
2022-09-27T03:18:07.906Z,5.15
2022-09-27T03:20:34.866Z,5.50
2022-09-27T03:23:01.839Z,4.80
2022-09-27T03:25:28.792Z,5.07
2022-09-27T03:27:55.697Z,4.70
2022-09-27T03:30:23.056Z,4.38
2022-09-27T03:32:50.048Z,5.38
2022-09-27T03:35:17.171Z,5.05
2022-09-27T03:37:44.972Z,5.18
2022-09-27T03:40:11.936Z,4.10
2022-09-27T03:42:39.692Z,5.50
2022-09-27T03:45:07.100Z,4.10
2022-09-27T03:47:34.076Z,6.57
2022-09-27T03:50:01.037Z,4.55
2022-09-27T03:52:28.046Z,5.63
2022-09-27T03:54:59.722Z,5.13
2022-09-27T03:57:30.813Z,5.32
2022-09-27T03:59:59.958Z,5.50
2022-09-27T04:02:29.665Z,5.45
2022-09-27T04:04:56.641Z,4.90
2022-09-27T04:07:23.863Z,4.78
2022-09-27T04:09:50.778Z,8.18
2022-09-27T04:12:17.706Z,6.10
2022-09-27T04:14:44.697Z,5.88
2022-09-27T04:17:11.678Z,6.13
2022-09-27T04:19:40.047Z,6.68
2022-09-27T04:22:07.056Z,6.78
2022-09-27T04:24:34.075Z,5.50
2022-09-27T04:27:01.059Z,6.25
2022-09-27T04:29:28.482Z,5.72
2022-09-27T04:31:56.043Z,6.13
2022-09-27T04:34:45.735Z,5.30
2022-09-27T04:37:13.061Z,6.13
2022-09-27T04:39:40.191Z,6.40
2022-09-27T04:42:07.281Z,6.82
2022-09-27T04:44:34.343Z,6.13
2022-09-27T04:47:01.749Z,7.60
2022-09-27T04:49:28.837Z,7.10
2022-09-27T04:51:56.367Z,6.57
2022-09-27T04:54:23.746Z,5.38
2022-09-27T04:56:50.756Z,5.72
2022-09-27T04:59:17.955Z,6.38
2022-09-27T05:01:45.519Z,6.18
2022-09-27T05:04:12.582Z,6.75
2022-09-27T05:06:39.546Z,9.32
2022-09-27T05:09:06.520Z,6.75
2022-09-27T05:11:33.606Z,6.15
2022-09-27T05:14:00.516Z,8.23
2022-09-27T05:16:30.782Z,7.63
2022-09-27T05:19:00.371Z,7.15
2022-09-27T05:21:27.606Z,6.72
2022-09-27T05:23:54.571Z,6.80
2022-09-27T05:26:21.597Z,7.15
2022-09-27T05:28:48.576Z,9.43
2022-09-27T05:31:16.403Z,6.47
2022-09-27T05:33:43.570Z,6.78
2022-09-27T05:36:10.626Z,8.60
2022-09-27T05:38:37.556Z,6.68
2022-09-27T05:41:05.580Z,6.75
2022-09-27T05:43:32.631Z,7.47
2022-09-27T05:46:00.937Z,7.97
2022-09-27T05:48:30.477Z,6.03
2022-09-27T05:50:57.656Z,7.07
2022-09-27T05:53:24.926Z,7.30
2022-09-27T05:55:51.918Z,7.88
2022-09-27T05:58:18.877Z,5.93
2022-09-27T06:00:45.859Z,6.32
2022-09-27T06:03:14.227Z,6.72
2022-09-27T06:05:41.687Z,6.90
2022-09-27T06:08:13.816Z,7.85
2022-09-27T06:10:41.736Z,6.13
2022-09-27T06:13:13.157Z,7.45
2022-09-27T06:15:43.597Z,5.88
2022-09-27T06:18:19.109Z,5.82
2022-09-27T06:20:47.192Z,7.40
2022-09-27T06:23:18.404Z,9.43
2022-09-27T06:25:46.761Z,7.78
2022-09-27T06:28:14.425Z,7.10
2022-09-27T06:30:47.493Z,6.63
2022-09-27T06:33:17.304Z,4.88
2022-09-27T06:35:45.528Z,4.07
2022-09-27T06:38:15.686Z,5.65
2022-09-27T06:40:46.217Z,4.68
2022-09-27T06:43:18.481Z,4.95
2022-09-27T06:45:45.503Z,9.02
2022-09-27T06:48:14.157Z,5.47
2022-09-27T06:50:44.262Z,6.45
2022-09-27T06:53:12.885Z,4.25
2022-09-27T06:55:40.371Z,3.25
2022-09-27T06:58:27.757Z,3.92
2022-09-27T07:00:54.946Z,4.30
2022-09-27T07:03:23.997Z,4.68
2022-09-27T07:05:59.159Z,5.38
2022-09-27T07:08:28.742Z,4.90
2022-09-27T07:10:56.976Z,3.35
2022-09-27T07:13:23.992Z,2.92
2022-09-27T07:15:50.987Z,3.03
2022-09-27T07:18:17.916Z,2.40
2022-09-27T07:20:44.946Z,4.18
2022-09-27T07:23:14.277Z,2.45
2022-09-27T07:25:41.267Z,2.65
2022-09-27T07:28:12.426Z,3.42
2022-09-27T07:30:39.447Z,3.45
2022-09-27T07:33:06.866Z,3.20
2022-09-27T07:35:33.921Z,3.00
2022-09-27T07:38:00.961Z,2.25
2022-09-27T07:40:28.093Z,3.15
2022-09-27T07:42:59.389Z,2.50
2022-09-27T07:45:26.918Z,3.05
2022-09-27T07:47:54.036Z,2.15
2022-09-27T07:50:21.438Z,2.35
2022-09-27T07:52:52.421Z,2.33
2022-09-27T07:55:19.895Z,2.85
2022-09-27T07:57:47.345Z,3.45
2022-09-27T08:00:17.052Z,3.25
2022-09-27T08:02:44.695Z,1.27
2022-09-27T08:05:12.739Z,2.67
2022-09-27T08:07:40.987Z,3.22
2022-09-27T08:10:09.160Z,2.67
2022-09-27T08:12:36.680Z,6.78
2022-09-27T08:15:04.909Z,4.07
2022-09-27T08:17:32.718Z,2.72
2022-09-27T08:20:00.376Z,6.18
2022-09-27T08:22:27.346Z,2.65
2022-09-27T08:24:54.366Z,1.85
2022-09-27T08:27:21.326Z,1.35
2022-09-27T08:29:48.711Z,2.45
2022-09-27T08:32:20.818Z,1.92
2022-09-27T08:34:49.890Z,2.00
2022-09-27T08:37:18.056Z,1.42
2022-09-27T08:39:47.959Z,1.90
2022-09-27T08:42:21.096Z,1.38
2022-09-27T08:45:09.143Z,1.65
2022-09-27T08:47:44.426Z,1.85
2022-09-27T08:50:39.733Z,2.88
2022-09-27T08:53:28.216Z,3.45
2022-09-27T08:55:57.667Z,2.03
2022-09-27T08:58:43.790Z,2.97
2022-09-27T09:01:16.711Z,2.97
2022-09-27T09:03:50.606Z,3.13
2022-09-27T09:06:39.636Z,2.00
2022-09-27T09:09:17.512Z,1.58
2022-09-27T09:12:23.127Z,1.70
2022-09-27T09:14:56.152Z,8.70
2022-09-27T09:17:52.135Z,3.08
2022-09-27T09:20:59.117Z,1.90
2022-09-27T09:23:37.416Z,6.82
2022-09-27T09:26:26.536Z,13.80
2022-09-27T09:29:12.106Z,4.75
2022-09-27T09:31:53.163Z,2.50
2022-09-27T09:34:28.025Z,4.78
2022-09-27T09:37:09.976Z,4.05
2022-09-27T09:39:48.896Z,5.22
2022-09-27T09:42:23.248Z,2.90
2022-09-27T09:45:01.823Z,4.72
2022-09-27T09:47:43.828Z,3.53
2022-09-27T09:50:32.586Z,3.95
2022-09-27T09:53:10.635Z,4.75
2022-09-27T09:55:41.486Z,3.47
2022-09-27T09:58:24.007Z,3.97
2022-09-27T10:01:00.536Z,6.13
2022-09-27T10:03:27.597Z,4.95
2022-09-27T10:05:54.577Z,6.43
2022-09-27T10:08:24.281Z,5.05
2022-09-27T10:10:53.172Z,4.65
2022-09-27T10:13:22.345Z,5.63
2022-09-27T10:16:11.355Z,6.80
2022-09-27T10:18:49.095Z,6.10
2022-09-27T10:21:25.416Z,5.10
2022-09-27T10:26:33.027Z,6.82
2022-09-27T10:29:17.052Z,5.95
2022-09-27T10:31:48.086Z,6.78
2022-09-27T10:34:24.457Z,7.82
2022-09-27T10:37:19.262Z,7.03
2022-09-27T10:39:48.863Z,7.28
2022-09-27T10:42:42.236Z,7.90
2022-09-27T10:45:39.807Z,7.18
2022-09-27T10:48:18.942Z,7.35
2022-09-27T10:51:01.283Z,6.28
2022-09-27T10:53:30.406Z,6.43
2022-09-27T10:55:57.588Z,6.47
2022-09-27T10:58:33.146Z,7.10
2022-09-27T11:03:33.841Z,6.45
2022-09-27T11:06:01.076Z,7.03
2022-09-27T11:08:33.547Z,8.57
2022-09-27T11:11:14.008Z,7.63
2022-09-27T11:13:41.906Z,6.78
2022-09-27T11:16:29.049Z,8.82
2022-09-27T11:19:57.707Z,6.85
2022-09-27T11:22:35.725Z,6.63
2022-09-27T11:25:29.654Z,8.10
2022-09-27T11:28:21.966Z,6.97
2022-09-27T11:31:10.784Z,7.13
2022-09-27T11:34:14.839Z,7.38
2022-09-27T11:37:05.266Z,7.55
2022-09-27T11:40:06.072Z,6.60
2022-09-27T11:42:36.026Z,7.15
2022-09-27T11:45:41.041Z,9.60
2022-09-27T11:48:20.376Z,8.73
2022-09-27T11:51:17.871Z,8.93
2022-09-27T11:54:25.117Z,9.98
2022-09-27T11:57:00.936Z,9.85
2022-09-27T11:59:46.676Z,9.63
2022-09-27T12:02:25.954Z,9.30
2022-09-27T12:05:14.246Z,8.52
2022-09-27T12:08:00.078Z,8.02
2022-09-27T12:10:27.078Z,8.90
2022-09-27T12:12:58.599Z,9.90
2022-09-27T12:15:34.294Z,11.25
2022-09-27T12:18:14.116Z,8.20
2022-09-27T12:20:43.493Z,7.88
2022-09-27T12:23:28.576Z,7.72
2022-09-27T12:26:03.687Z,8.32
2022-09-27T12:28:51.251Z,8.98
2022-09-27T12:31:32.237Z,5.93
2022-09-27T12:34:04.846Z,7.80
2022-09-27T12:36:40.741Z,9.52
2022-09-27T12:39:16.834Z,7.85
2022-09-27T12:41:49.843Z,6.47
2022-09-27T12:44:16.828Z,4.50
2022-09-27T12:46:55.673Z,6.90
2022-09-27T12:49:22.706Z,8.23
2022-09-27T12:51:58.421Z,7.80
2022-09-27T12:54:40.356Z,5.93
2022-09-27T12:57:29.826Z,7.05
2022-09-27T13:00:17.682Z,10.85
2022-09-27T13:03:16.205Z,6.95
2022-09-27T13:05:49.826Z,8.00
2022-09-27T13:08:26.866Z,11.98
2022-09-27T13:10:58.431Z,9.15
2022-09-27T13:13:27.676Z,5.43
2022-09-27T13:15:59.172Z,7.32
2022-09-27T13:18:28.856Z,9.98
2022-09-27T13:20:55.967Z,8.52
2022-09-27T13:23:25.138Z,9.00
2022-09-27T13:25:56.574Z,8.57
2022-09-27T13:28:31.820Z,12.25
2022-09-27T13:31:07.619Z,11.45
2022-09-27T13:33:34.646Z,9.32
2022-09-27T13:36:30.620Z,10.80
2022-09-27T13:39:01.354Z,9.88
2022-09-27T13:41:50.516Z,9.40
2022-09-27T13:44:26.665Z,9.98
2022-09-27T13:46:56.949Z,8.98
2022-09-27T13:49:33.688Z,10.95
2022-09-27T13:52:05.047Z,12.00
2022-09-27T13:54:34.715Z,9.05
2022-09-27T13:57:02.662Z,10.00
2022-09-27T13:59:50.425Z,11.05
2022-09-27T14:02:29.255Z,9.45
2022-09-27T14:04:59.956Z,9.15
2022-09-27T14:07:38.890Z,9.32
2022-09-27T14:10:07.486Z,8.90
2022-09-27T14:12:37.665Z,10.05
2022-09-27T14:15:06.407Z,9.80
2022-09-27T14:17:33.611Z,10.38
2022-09-27T14:20:01.415Z,10.40
2022-09-27T14:22:28.564Z,8.77
2022-09-27T14:24:57.366Z,9.23
2022-09-27T14:27:44.521Z,11.25
2022-09-27T14:30:16.746Z,9.48
2022-09-27T14:32:48.836Z,8.88
2022-09-27T14:35:46.881Z,9.05
2022-09-27T14:38:38.964Z,9.85
2022-09-27T14:41:08.492Z,9.70
2022-09-27T14:43:42.611Z,7.55
2022-09-27T14:46:32.452Z,9.75
2022-09-27T14:49:11.327Z,11.20
2022-09-27T14:51:38.681Z,12.63
2022-09-27T14:54:07.896Z,11.45
2022-09-27T14:56:39.883Z,12.93
2022-09-27T14:59:27.137Z,13.02
2022-09-27T15:01:54.726Z,9.13
2022-09-27T15:04:24.033Z,11.55
2022-09-27T15:06:51.662Z,10.52
2022-09-27T15:09:19.687Z,10.05
2022-09-27T15:11:52.896Z,9.63
2022-09-27T15:14:21.247Z,11.85
2022-09-27T15:16:50.317Z,12.05
2022-09-27T15:19:25.736Z,10.18
2022-09-27T15:24:39.851Z,10.05
2022-09-27T15:27:14.551Z,10.85
2022-09-27T15:29:41.931Z,11.55
2022-09-27T15:32:14.677Z,10.48
2022-09-27T15:34:41.871Z,11.52
2022-09-27T15:37:38.137Z,9.95
2022-09-27T15:40:56.983Z,9.57
2022-09-27T15:43:39.513Z,10.55
2022-09-27T15:46:33.243Z,10.93
2022-09-27T15:49:23.596Z,9.68
2022-09-27T15:51:59.633Z,13.15
2022-09-27T15:54:30.415Z,11.65
2022-09-27T15:57:02.276Z,10.20
2022-09-27T15:59:33.386Z,9.32
2022-09-27T16:02:10.267Z,10.27
2022-09-27T16:04:37.239Z,10.25
2022-09-27T16:07:09.085Z,10.13
2022-09-27T16:09:36.213Z,10.63
2022-09-27T16:12:03.176Z,12.43
2022-09-27T16:14:30.126Z,10.73
2022-09-27T16:17:00.947Z,9.38
2022-09-27T16:19:27.916Z,9.02
2022-09-27T16:21:55.530Z,9.02
2022-09-27T16:24:23.922Z,8.82
2022-09-27T16:26:50.870Z,10.48
2022-09-27T16:29:17.885Z,10.10
2022-09-27T16:31:45.301Z,13.45
2022-09-27T16:34:12.982Z,12.20
2022-09-27T16:36:40.811Z,11.98
2022-09-27T16:39:10.905Z,15.68
2022-09-27T16:41:38.177Z,12.07
2022-09-27T16:44:23.326Z,11.65
2022-09-27T16:46:50.612Z,13.63
2022-09-27T16:49:36.420Z,17.10
2022-09-27T16:52:03.427Z,12.50
2022-09-27T16:54:30.624Z,11.82
2022-09-27T16:56:59.346Z,10.57
2022-09-27T16:59:26.816Z,12.20
2022-09-27T17:01:57.667Z,10.25
2022-09-27T17:04:26.456Z,12.93
2022-09-27T17:06:54.077Z,12.50
2022-09-27T17:09:21.916Z,12.75
2022-09-27T17:11:49.206Z,12.93
2022-09-27T17:14:19.698Z,13.63
2022-09-27T17:16:48.232Z,13.52
2022-09-27T17:19:16.599Z,12.07
2022-09-27T17:21:45.586Z,14.98
2022-09-27T17:24:12.734Z,12.77
2022-09-27T17:26:40.148Z,13.80
2022-09-27T17:29:08.116Z,13.70
2022-09-27T17:31:37.415Z,14.02
2022-09-27T17:34:04.760Z,13.85
2022-09-27T17:36:35.576Z,14.30
2022-09-27T17:39:03.483Z,13.75
2022-09-27T17:41:30.827Z,14.68
2022-09-27T17:43:59.985Z,13.75
2022-09-27T17:46:32.676Z,13.60
2022-09-27T17:49:19.125Z,15.77
2022-09-27T17:51:49.751Z,14.82
2022-09-27T17:54:19.532Z,14.93
2022-09-27T17:56:47.325Z,14.85
2022-09-27T17:59:16.114Z,14.93
2022-09-27T18:01:44.921Z,17.02
2022-09-27T18:04:15.146Z,14.57
2022-09-27T18:06:44.193Z,14.95
2022-09-27T18:09:13.487Z,14.50
2022-09-27T18:11:41.047Z,13.98
2022-09-27T18:14:10.425Z,13.68
2022-09-27T18:16:41.971Z,14.20
2022-09-27T18:19:13.021Z,13.30
2022-09-27T18:21:40.108Z,14.05
2022-09-27T18:24:07.696Z,15.68
2022-09-27T18:26:40.244Z,15.85
2022-09-27T18:29:11.247Z,13.25
2022-09-27T18:31:40.211Z,12.57
2022-09-27T18:34:09.149Z,13.90
2022-09-27T18:36:37.727Z,13.85
2022-09-27T18:39:09.577Z,13.85
2022-09-27T18:41:36.608Z,13.20
2022-09-27T18:44:05.649Z,11.48
2022-09-27T18:46:37.328Z,11.00
2022-09-27T18:49:07.916Z,11.30
2022-09-27T18:51:37.633Z,11.63
2022-09-27T18:54:13.373Z,11.70
2022-09-27T18:59:10.080Z,13.48
2022-09-27T19:01:40.015Z,10.85
2022-09-27T19:04:11.783Z,11.20
2022-09-27T19:06:39.994Z,11.68
2022-09-27T19:09:08.216Z,11.13
2022-09-27T19:11:35.606Z,11.48
2022-09-27T19:14:02.776Z,10.05
2022-09-27T19:16:30.338Z,11.02
2022-09-27T19:18:57.428Z,10.13
2022-09-27T19:21:27.202Z,10.40
2022-09-27T19:23:54.667Z,11.23
2022-09-27T19:26:24.881Z,11.38
2022-09-27T19:28:52.662Z,9.52
2022-09-27T19:31:24.885Z,12.15
2022-09-27T19:33:57.453Z,9.95
2022-09-27T19:36:26.376Z,10.10
2022-09-27T19:38:53.731Z,9.20
2022-09-27T19:41:20.697Z,9.00
2022-09-27T19:43:52.257Z,7.95
2022-09-27T19:46:20.472Z,8.13
2022-09-27T19:48:49.277Z,9.20
2022-09-27T19:51:22.168Z,9.45
2022-09-27T19:53:50.024Z,9.07
2022-09-27T19:56:17.615Z,8.93
2022-09-27T19:58:44.956Z,8.30
2022-09-27T20:01:14.645Z,10.23
2022-09-27T20:03:43.518Z,9.25
2022-09-27T20:06:12.615Z,10.30
2022-09-27T20:08:39.794Z,8.55
2022-09-27T20:11:12.798Z,9.65
2022-09-27T20:13:40.251Z,8.80
2022-09-27T20:16:08.926Z,10.75
2022-09-27T20:18:43.416Z,6.65
2022-09-27T20:21:10.856Z,8.85
2022-09-27T20:23:38.171Z,7.45
2022-09-27T20:26:08.134Z,7.30
2022-09-27T20:28:35.943Z,7.80
2022-09-27T20:31:04.962Z,8.52
2022-09-27T20:33:41.341Z,10.18
2022-09-27T20:36:12.526Z,10.27
2022-09-27T20:38:44.755Z,10.93
2022-09-27T20:41:13.181Z,11.98
2022-09-27T20:43:40.556Z,9.85
2022-09-27T20:46:11.140Z,10.82
2022-09-27T20:48:41.157Z,11.93
2022-09-27T20:51:08.583Z,10.73
2022-09-27T20:53:35.729Z,10.32
2022-09-27T20:56:02.970Z,11.15
2022-09-27T20:58:31.708Z,10.82
2022-09-27T21:01:06.318Z,10.93
2022-09-27T21:03:34.582Z,10.10
2022-09-27T21:06:02.526Z,11.50
2022-09-27T21:08:31.336Z,12.88
2022-09-27T21:11:08.195Z,9.07
2022-09-27T21:13:35.876Z,10.32
2022-09-27T21:16:04.825Z,10.68
2022-09-27T21:18:32.147Z,10.23
2022-09-27T21:21:17.485Z,10.52
2022-09-27T21:23:46.086Z,13.15
2022-09-27T21:26:15.771Z,11.00
2022-09-27T21:28:54.035Z,9.48
2022-09-27T21:31:39.174Z,10.48
2022-09-27T21:34:06.846Z,10.20
2022-09-27T21:36:38.437Z,10.93
2022-09-27T21:39:08.523Z,9.80
2022-09-27T21:41:36.956Z,11.40
2022-09-27T21:44:05.719Z,11.98
2022-09-27T21:46:33.226Z,10.77
2022-09-27T21:49:04.285Z,11.70
2022-09-27T21:51:39.291Z,10.80
2022-09-27T21:54:09.446Z,11.73
2022-09-27T21:56:39.387Z,11.25
2022-09-27T21:59:09.509Z,9.95
2022-09-27T22:01:36.663Z,11.68
2022-09-27T22:04:06.557Z,10.25
2022-09-27T22:06:38.427Z,11.32
2022-09-27T22:09:08.667Z,11.23
2022-09-27T22:11:39.160Z,13.10
2022-09-27T22:14:06.970Z,13.18
2022-09-27T22:16:34.222Z,12.20
2022-09-27T22:19:01.548Z,9.93
2022-09-27T22:21:30.593Z,11.93
2022-09-27T22:24:07.256Z,11.25
2022-09-27T22:26:37.201Z,12.25
2022-09-27T22:29:05.055Z,12.20
2022-09-27T22:31:32.111Z,12.05
2022-09-27T22:34:01.436Z,10.50
2022-09-27T22:36:29.171Z,12.00
2022-09-27T22:38:56.622Z,11.52
2022-09-27T22:41:24.491Z,11.93
2022-09-27T22:43:53.706Z,11.20
2022-09-27T22:46:21.705Z,11.50
2022-09-27T22:48:49.870Z,11.23
2022-09-27T22:51:17.424Z,12.05
2022-09-27T22:53:44.532Z,13.15
2022-09-27T22:56:14.009Z,12.60
2022-09-27T22:58:43.116Z,13.18
2022-09-27T23:01:16.817Z,12.77
2022-09-27T23:03:45.776Z,14.15
2022-09-27T23:06:14.326Z,13.02
2022-09-27T23:08:41.656Z,12.93
2022-09-27T23:11:11.451Z,13.05
2022-09-27T23:13:40.766Z,11.93
2022-09-27T23:16:10.254Z,12.45
2022-09-27T23:18:37.936Z,11.63
2022-09-27T23:21:09.506Z,11.30
2022-09-27T23:23:40.777Z,10.10
2022-09-27T23:26:10.028Z,10.43
2022-09-27T23:28:37.466Z,9.10
2022-09-27T23:31:08.390Z,9.55
2022-09-27T23:33:37.437Z,8.98
2022-09-27T23:36:05.936Z,9.48
2022-09-27T23:38:33.588Z,7.35
2022-09-27T23:41:00.807Z,7.55
2022-09-27T23:43:27.975Z,8.30
2022-09-27T23:45:57.329Z,8.98
2022-09-27T23:48:25.516Z,7.70
2022-09-27T23:50:52.797Z,8.40
2022-09-27T23:53:20.996Z,7.82
2022-09-27T23:55:50.010Z,8.35
2022-09-27T23:58:23.125Z,8.38
